createdAt,value
2023-04-08T00:01:20.914Z,31.57
2023-04-08T00:02:52.362Z,30.24
2023-04-08T00:04:24.001Z,34.19
2023-04-08T00:05:55.417Z,33.14
2023-04-08T00:07:26.774Z,35.89
2023-04-08T00:09:03.331Z,37.38
2023-04-08T00:10:34.737Z,35.74
2023-04-08T00:12:05.986Z,31.93
2023-04-08T00:13:37.320Z,34.03
2023-04-08T00:15:08.635Z,31.48
2023-04-08T00:16:40.153Z,31.09
2023-04-08T00:18:11.420Z,30.85
2023-04-08T00:19:42.681Z,29.96
2023-04-08T00:21:13.832Z,30.32
2023-04-08T00:22:45.152Z,31.66
2023-04-08T00:24:16.536Z,32.00
2023-04-08T00:25:48.538Z,30.93
2023-04-08T00:27:19.907Z,29.64
2023-04-08T00:28:52.224Z,29.19
2023-04-08T00:30:23.684Z,28.36
2023-04-08T00:31:54.995Z,28.04
2023-04-08T00:33:26.560Z,26.74
2023-04-08T00:34:58.044Z,26.06
2023-04-08T00:36:29.275Z,26.03
2023-04-08T00:38:00.563Z,26.18
2023-04-08T00:39:42.056Z,27.35
2023-04-08T00:41:13.531Z,28.05
2023-04-08T00:42:45.188Z,29.65
2023-04-08T00:44:16.745Z,29.70
2023-04-08T00:45:48.340Z,29.67
2023-04-08T00:47:19.676Z,30.78
2023-04-08T00:48:51.395Z,32.04
2023-04-08T00:50:22.891Z,31.60
2023-04-08T00:51:54.502Z,31.66
2023-04-08T00:53:25.993Z,30.14
2023-04-08T00:54:57.506Z,30.64
2023-04-08T00:56:28.920Z,30.89
2023-04-08T00:58:00.251Z,31.15
2023-04-08T00:59:31.457Z,31.38
2023-04-08T01:01:02.981Z,30.25
2023-04-08T01:02:34.630Z,29.02
2023-04-08T01:04:06.135Z,27.88
2023-04-08T01:05:37.737Z,27.86
2023-04-08T01:07:08.912Z,27.36
2023-04-08T01:08:40.138Z,27.74
2023-04-08T01:10:11.618Z,25.93
2023-04-08T01:11:42.804Z,25.53
2023-04-08T01:13:13.960Z,27.33
2023-04-08T01:14:45.232Z,27.04
2023-04-08T01:16:49.742Z,26.53
2023-04-08T01:18:25.983Z,26.12
2023-04-08T01:19:57.324Z,24.24
2023-04-08T01:21:29.116Z,22.39
2023-04-08T01:23:00.437Z,21.97
2023-04-08T01:24:31.733Z,23.20
2023-04-08T01:26:03.082Z,20.92
2023-04-08T01:27:34.437Z,20.99
2023-04-08T01:29:11.112Z,19.73
2023-04-08T01:30:42.436Z,18.12
2023-04-08T01:32:13.902Z,17.50
2023-04-08T01:33:45.476Z,16.30
2023-04-08T01:35:16.764Z,16.60
2023-04-08T01:36:47.996Z,16.90
2023-04-08T01:38:19.348Z,16.45
2023-04-08T01:39:50.638Z,16.68
2023-04-08T01:41:22.117Z,16.78
2023-04-08T01:42:53.477Z,15.92
2023-04-08T01:44:24.662Z,18.31
2023-04-08T01:45:55.960Z,20.42
2023-04-08T01:47:27.180Z,21.60
2023-04-08T01:48:58.441Z,20.50
2023-04-08T01:50:29.704Z,19.26
2023-04-08T01:52:00.886Z,19.98
2023-04-08T01:53:32.193Z,20.95
2023-04-08T01:55:03.819Z,24.73
2023-04-08T01:56:40.087Z,25.26
2023-04-08T01:58:11.304Z,22.71
2023-04-08T01:59:42.625Z,22.38
2023-04-08T02:01:13.868Z,20.41
2023-04-08T02:02:45.322Z,17.76
2023-04-08T02:04:16.847Z,19.92
2023-04-08T02:05:48.142Z,19.87
2023-04-08T02:07:19.430Z,18.53
2023-04-08T02:08:51.007Z,18.80
2023-04-08T02:10:22.511Z,19.86
2023-04-08T02:11:53.840Z,20.75
2023-04-08T02:13:25.128Z,20.24
2023-04-08T02:14:56.906Z,22.93
2023-04-08T02:16:28.193Z,20.74
2023-04-08T02:17:59.674Z,19.73
2023-04-08T02:19:30.901Z,21.17
2023-04-08T02:21:02.149Z,17.33
2023-04-08T02:22:33.650Z,20.48
2023-04-08T02:24:04.885Z,21.80
2023-04-08T02:25:36.170Z,25.42
2023-04-08T02:27:08.273Z,24.30
2023-04-08T02:28:39.901Z,18.65
2023-04-08T02:30:11.178Z,19.85
2023-04-08T02:31:42.413Z,19.62
2023-04-08T02:33:13.621Z,18.96
2023-04-08T02:34:44.890Z,20.95
2023-04-08T02:36:21.331Z,18.46
2023-04-08T02:37:52.604Z,15.37
2023-04-08T02:39:23.904Z,15.83
2023-04-08T02:40:55.290Z,16.79
2023-04-08T02:42:26.770Z,16.24
2023-04-08T02:43:58.138Z,15.64
2023-04-08T02:45:29.463Z,16.30
2023-04-08T02:47:00.787Z,16.63
2023-04-08T02:48:32.098Z,17.23
2023-04-08T02:50:03.341Z,17.20
2023-04-08T02:51:34.730Z,18.50
2023-04-08T02:53:06.128Z,16.47
2023-04-08T02:54:37.433Z,15.43
2023-04-08T02:56:08.589Z,17.18
2023-04-08T02:57:39.793Z,15.82
2023-04-08T02:59:11.229Z,15.44
2023-04-08T03:00:42.518Z,15.79
2023-04-08T03:02:13.821Z,15.03
2023-04-08T03:03:45.319Z,15.92
2023-04-08T03:05:21.924Z,16.23
2023-04-08T03:06:53.200Z,16.00
2023-04-08T03:08:24.480Z,17.09
2023-04-08T03:09:55.807Z,16.92
2023-04-08T03:11:27.514Z,16.49
2023-04-08T03:12:58.772Z,17.85
2023-04-08T03:14:30.036Z,14.01
2023-04-08T03:16:01.352Z,15.28
2023-04-08T03:17:32.938Z,16.28
2023-04-08T03:19:04.148Z,14.14
2023-04-08T03:20:35.447Z,13.52
2023-04-08T03:22:06.894Z,13.34
2023-04-08T03:23:38.108Z,14.03
2023-04-08T03:25:09.365Z,13.65
2023-04-08T03:26:40.768Z,14.45
2023-04-08T03:28:12.138Z,16.76
2023-04-08T03:29:43.380Z,17.11
2023-04-08T03:31:14.653Z,16.40
2023-04-08T03:32:46.179Z,15.98
2023-04-08T03:34:17.389Z,16.49
2023-04-08T03:35:48.917Z,17.41
2023-04-08T03:37:20.249Z,17.34
2023-04-08T03:38:57.826Z,16.93
2023-04-08T03:40:30.468Z,14.92
2023-04-08T03:42:01.892Z,15.74
2023-04-08T03:43:38.226Z,15.36
2023-04-08T03:45:09.452Z,15.54
2023-04-08T03:46:40.731Z,15.81
2023-04-08T03:48:12.067Z,15.85
2023-04-08T03:49:43.570Z,15.91
2023-04-08T03:51:14.808Z,16.22
2023-04-08T03:52:46.121Z,16.64
2023-04-08T03:54:17.965Z,15.70
2023-04-08T03:55:49.611Z,16.22
2023-04-08T03:57:20.780Z,15.82
2023-04-08T03:58:52.368Z,17.01
2023-04-08T04:00:23.804Z,17.22
2023-04-08T04:01:54.999Z,17.67
2023-04-08T04:03:26.620Z,16.21
2023-04-08T04:04:58.134Z,14.92
2023-04-08T04:06:29.582Z,15.41
2023-04-08T04:08:00.887Z,16.47
2023-04-08T04:09:32.132Z,16.79
2023-04-08T04:11:03.448Z,16.14
2023-04-08T04:12:34.678Z,14.95
2023-04-08T04:14:05.958Z,14.72
2023-04-08T04:15:37.268Z,13.49
2023-04-08T04:17:08.523Z,13.33
2023-04-08T04:18:40.084Z,14.23
2023-04-08T04:20:11.564Z,14.04
2023-04-08T04:21:43.322Z,14.69
2023-04-08T04:23:14.650Z,14.50
2023-04-08T04:24:46.261Z,14.13
2023-04-08T04:26:17.737Z,14.29
2023-04-08T04:27:49.279Z,14.64
2023-04-08T04:29:20.680Z,15.21
2023-04-08T04:30:52.377Z,14.85
2023-04-08T04:32:24.746Z,15.27
2023-04-08T04:33:56.275Z,17.69
2023-04-08T04:35:27.595Z,17.79
2023-04-08T04:36:59.263Z,17.01
2023-04-08T04:38:31.416Z,15.70
2023-04-08T04:40:02.849Z,14.18
2023-04-08T04:41:34.062Z,14.91
2023-04-08T04:43:05.287Z,14.75
2023-04-08T04:44:36.727Z,15.27
2023-04-08T04:46:18.018Z,16.55
2023-04-08T04:47:49.520Z,15.98
2023-04-08T04:49:20.741Z,16.66
2023-04-08T04:50:52.172Z,19.87
2023-04-08T04:52:23.381Z,19.21
2023-04-08T04:53:54.870Z,19.47
2023-04-08T04:55:26.201Z,17.59
2023-04-08T04:56:57.486Z,18.91
2023-04-08T04:58:28.881Z,19.76
2023-04-08T05:00:00.307Z,18.44
2023-04-08T05:01:31.739Z,17.42
2023-04-08T05:03:03.085Z,19.24
2023-04-08T05:04:34.578Z,20.11
2023-04-08T05:06:05.984Z,20.38
2023-04-08T05:07:37.154Z,20.66
2023-04-08T05:09:08.391Z,22.01
2023-04-08T05:10:39.684Z,23.57
2023-04-08T05:12:10.894Z,22.86
2023-04-08T05:13:42.094Z,21.61
2023-04-08T05:15:13.344Z,21.11
2023-04-08T05:16:44.658Z,21.84
2023-04-08T05:18:16.042Z,20.70
2023-04-08T05:19:47.857Z,19.90
2023-04-08T05:21:19.181Z,20.38
2023-04-08T05:22:50.526Z,16.92
2023-04-08T05:24:21.707Z,19.91
2023-04-08T05:25:53.065Z,20.55
2023-04-08T05:27:24.216Z,17.67
2023-04-08T05:28:55.716Z,17.60
2023-04-08T05:30:26.969Z,16.46
2023-04-08T05:31:58.257Z,18.58
2023-04-08T05:33:29.609Z,19.30
2023-04-08T05:35:00.865Z,17.96
2023-04-08T05:36:32.169Z,17.35
2023-04-08T05:38:03.481Z,15.73
2023-04-08T05:39:34.792Z,18.34
2023-04-08T05:41:06.120Z,18.24
2023-04-08T05:42:37.392Z,19.64
2023-04-08T05:44:08.740Z,18.19
2023-04-08T05:45:40.055Z,15.61
2023-04-08T05:47:11.576Z,15.81
2023-04-08T05:48:48.755Z,16.22
2023-04-08T05:51:34.183Z,16.38
2023-04-08T05:53:05.717Z,20.31
2023-04-08T05:54:37.778Z,22.62
2023-04-08T05:56:14.529Z,18.10
2023-04-08T05:57:46.025Z,19.39
2023-04-08T05:59:27.498Z,19.40
2023-04-08T06:00:58.832Z,18.23
2023-04-08T06:02:30.360Z,18.73
2023-04-08T06:04:02.234Z,20.50
2023-04-08T06:05:34.042Z,17.32
2023-04-08T06:07:05.203Z,18.24
2023-04-08T06:08:36.387Z,19.35
2023-04-08T06:10:07.529Z,17.45
2023-04-08T06:11:38.852Z,18.61
2023-04-08T06:13:10.268Z,18.98
2023-04-08T06:14:41.477Z,20.11
2023-04-08T06:16:12.741Z,17.42
2023-04-08T06:17:44.055Z,17.04
2023-04-08T06:19:15.271Z,17.41
2023-04-08T06:20:48.668Z,18.89
2023-04-08T06:22:19.948Z,19.48
2023-04-08T06:23:51.204Z,18.86
2023-04-08T06:25:22.389Z,19.65
2023-04-08T06:26:53.781Z,19.24
2023-04-08T06:28:25.164Z,19.50
2023-04-08T06:29:56.523Z,18.15
2023-04-08T06:31:27.807Z,18.07
2023-04-08T06:33:04.100Z,19.86
2023-04-08T06:34:35.762Z,20.68
2023-04-08T06:36:07.012Z,17.34
2023-04-08T06:37:38.645Z,16.18
2023-04-08T06:39:09.969Z,17.12
2023-04-08T06:40:41.177Z,16.64
2023-04-08T06:42:12.448Z,18.37
2023-04-08T06:43:43.680Z,18.33
2023-04-08T06:45:15.150Z,19.86
2023-04-08T06:46:46.751Z,20.46
2023-04-08T06:48:18.293Z,20.68
2023-04-08T06:49:49.854Z,20.16
2023-04-08T06:51:21.086Z,18.35
2023-04-08T06:52:52.377Z,20.64
2023-04-08T06:54:23.642Z,27.02
2023-04-08T06:55:55.001Z,19.48
2023-04-08T06:57:26.295Z,20.07
2023-04-08T06:58:57.651Z,20.21
2023-04-08T07:00:28.919Z,21.19
2023-04-08T07:02:00.475Z,21.92
2023-04-08T07:03:32.453Z,21.13
2023-04-08T07:05:03.987Z,23.76
2023-04-08T07:06:35.343Z,23.14
2023-04-08T07:08:06.915Z,22.95
2023-04-08T07:09:38.592Z,22.45
2023-04-08T07:11:09.836Z,23.76
2023-04-08T07:12:41.095Z,23.80
2023-04-08T07:14:12.291Z,23.81
2023-04-08T07:15:43.687Z,25.14
2023-04-08T07:17:15.230Z,27.14
2023-04-08T07:18:46.655Z,26.70
2023-04-08T07:20:18.935Z,25.05
2023-04-08T07:21:55.211Z,25.06
2023-04-08T07:23:26.750Z,26.05
2023-04-08T07:24:58.059Z,27.09
2023-04-08T07:26:29.225Z,27.56
2023-04-08T07:28:00.598Z,27.92
2023-04-08T07:29:31.798Z,28.25
2023-04-08T07:31:03.448Z,30.12
2023-04-08T07:32:35.226Z,29.88
2023-04-08T07:34:06.480Z,28.40
2023-04-08T07:35:38.051Z,29.72
2023-04-08T07:37:09.477Z,30.24
2023-04-08T07:38:40.783Z,30.88
2023-04-08T07:40:12.287Z,31.39
2023-04-08T07:41:45.246Z,30.59
2023-04-08T07:43:16.517Z,29.81
2023-04-08T07:44:48.115Z,27.58
2023-04-08T07:46:19.544Z,28.31
2023-04-08T07:47:50.933Z,29.41
2023-04-08T07:49:22.206Z,28.96
2023-04-08T07:51:08.363Z,31.25
2023-04-08T07:52:42.350Z,31.05
2023-04-08T07:54:14.311Z,31.03
2023-04-08T07:55:45.530Z,29.58
2023-04-08T07:57:16.855Z,31.02
2023-04-08T07:58:49.586Z,31.64
2023-04-08T08:00:22.530Z,29.41
2023-04-08T08:01:53.925Z,30.21
2023-04-08T08:03:25.472Z,30.27
2023-04-08T08:04:56.993Z,29.82
2023-04-08T08:06:29.045Z,29.52
2023-04-08T08:08:05.756Z,30.48
2023-04-08T08:09:37.203Z,30.43
2023-04-08T08:11:08.721Z,28.95
2023-04-08T08:12:40.017Z,27.73
2023-04-08T08:14:11.206Z,26.02
2023-04-08T08:15:47.758Z,25.69
2023-04-08T08:17:25.435Z,25.06
2023-04-08T08:18:58.572Z,23.55
2023-04-08T08:20:34.893Z,22.39
2023-04-08T08:22:06.226Z,22.18
2023-04-08T08:23:38.260Z,21.13
2023-04-08T08:25:09.721Z,22.76
2023-04-08T08:26:40.919Z,22.83
2023-04-08T08:28:12.203Z,23.40
2023-04-08T08:29:43.527Z,23.76
2023-04-08T08:31:15.484Z,21.85
2023-04-08T08:32:47.059Z,22.19
2023-04-08T08:34:18.413Z,21.94
2023-04-08T08:35:49.655Z,20.85
2023-04-08T08:37:20.903Z,20.56
2023-04-08T08:38:52.644Z,20.29
2023-04-08T08:40:25.003Z,19.26
2023-04-08T08:41:56.411Z,19.28
2023-04-08T08:43:27.794Z,19.20
2023-04-08T08:44:59.220Z,19.57
2023-04-08T08:46:30.587Z,19.35
2023-04-08T08:48:02.095Z,19.60
2023-04-08T08:49:33.401Z,19.42
2023-04-08T08:51:04.843Z,19.46
2023-04-08T08:52:36.058Z,19.76
2023-04-08T08:54:07.347Z,18.85
2023-04-08T08:56:00.324Z,18.11
2023-04-08T08:57:44.683Z,18.35
2023-04-08T08:59:21.127Z,17.47
2023-04-08T09:01:02.785Z,18.18
2023-04-08T09:02:39.402Z,17.32
2023-04-08T09:04:11.332Z,17.31
2023-04-08T09:05:43.081Z,17.50
2023-04-08T09:07:14.548Z,17.23
2023-04-08T09:08:45.880Z,17.20
2023-04-08T09:10:17.281Z,16.72
2023-04-08T09:11:48.690Z,17.58
2023-04-08T09:13:20.080Z,18.23
2023-04-08T09:14:51.418Z,18.30
2023-04-08T09:16:22.901Z,17.40
2023-04-08T09:17:54.234Z,16.76
2023-04-08T09:19:25.721Z,15.38
2023-04-08T09:20:57.061Z,15.92
2023-04-08T09:22:28.351Z,15.51
2023-04-08T09:23:59.650Z,15.24
2023-04-08T09:25:30.949Z,14.43
2023-04-08T09:27:02.506Z,14.30
2023-04-08T09:28:33.733Z,13.50
2023-04-08T09:30:06.094Z,13.98
2023-04-08T09:31:37.530Z,14.55
2023-04-08T09:33:09.299Z,14.44
2023-04-08T09:34:40.629Z,13.94
2023-04-08T09:36:11.987Z,13.71
2023-04-08T09:37:43.343Z,12.80
2023-04-08T09:39:14.633Z,13.59
2023-04-08T09:40:46.220Z,13.35
2023-04-08T09:42:18.941Z,14.00
2023-04-08T09:43:50.843Z,13.15
2023-04-08T09:45:22.236Z,12.69
2023-04-08T09:46:58.953Z,13.07
2023-04-08T09:48:30.238Z,12.70
2023-04-08T09:50:01.946Z,13.02
2023-04-08T09:51:33.550Z,12.93
2023-04-08T09:53:04.817Z,13.04
2023-04-08T09:54:36.201Z,12.38
2023-04-08T09:56:07.393Z,12.05
2023-04-08T09:57:39.519Z,11.62
2023-04-08T09:59:10.717Z,11.50
2023-04-08T10:00:41.971Z,12.46
2023-04-08T10:02:13.489Z,11.98
2023-04-08T10:03:50.239Z,11.88
2023-04-08T10:05:32.271Z,11.26
2023-04-08T10:07:34.904Z,11.23
2023-04-08T10:09:06.147Z,11.29
2023-04-08T10:10:48.174Z,10.41
2023-04-08T10:12:19.587Z,10.33
2023-04-08T10:13:51.150Z,10.70
2023-04-08T10:15:22.565Z,10.46
2023-04-08T10:16:59.272Z,11.16
2023-04-08T10:18:30.549Z,10.54
2023-04-08T10:20:01.896Z,10.31
2023-04-08T10:21:33.320Z,10.90
2023-04-08T10:23:04.742Z,10.87
2023-04-08T10:24:36.016Z,10.96
2023-04-08T10:26:07.247Z,10.99
2023-04-08T10:27:43.604Z,10.83
2023-04-08T10:29:14.824Z,11.08
2023-04-08T10:30:46.009Z,10.60
2023-04-08T10:32:17.241Z,10.81
2023-04-08T10:33:49.025Z,10.90
2023-04-08T10:35:20.560Z,10.32
2023-04-08T10:36:51.832Z,10.37
2023-04-08T10:38:23.237Z,10.73
2023-04-08T10:39:54.525Z,11.40
2023-04-08T10:41:25.922Z,11.68
2023-04-08T10:42:58.395Z,11.71
2023-04-08T10:44:29.831Z,11.47
2023-04-08T10:46:06.226Z,11.21
2023-04-08T10:47:37.966Z,10.93
2023-04-08T10:49:09.292Z,11.73
2023-04-08T10:50:50.639Z,11.82
2023-04-08T10:52:22.168Z,11.62
2023-04-08T10:53:53.457Z,11.59
2023-04-08T10:55:24.880Z,11.85
2023-04-08T10:56:56.094Z,11.73
2023-04-08T10:58:27.444Z,12.24
2023-04-08T10:59:58.779Z,11.30
2023-04-08T11:01:30.343Z,11.18
2023-04-08T11:03:01.907Z,11.85
2023-04-08T11:04:33.694Z,11.46
2023-04-08T11:06:10.064Z,11.24
2023-04-08T11:07:42.081Z,12.16
2023-04-08T11:09:13.776Z,12.41
2023-04-08T11:10:45.050Z,12.00
2023-04-08T11:12:21.474Z,12.51
2023-04-08T11:13:53.936Z,12.36
2023-04-08T11:15:25.500Z,12.35
2023-04-08T11:16:56.795Z,12.75
2023-04-08T11:18:28.057Z,12.83
2023-04-08T11:19:59.479Z,13.25
2023-04-08T11:21:30.745Z,13.72
2023-04-08T11:23:02.061Z,14.07
2023-04-08T11:24:33.331Z,14.05
2023-04-08T11:26:06.109Z,12.77
2023-04-08T11:27:37.970Z,13.74
2023-04-08T11:29:09.308Z,13.88
2023-04-08T11:30:40.887Z,13.58
2023-04-08T11:32:12.206Z,13.92
2023-04-08T11:33:43.776Z,14.85
2023-04-08T11:35:15.034Z,14.75
2023-04-08T11:36:46.291Z,13.74
2023-04-08T11:38:17.581Z,13.47
2023-04-08T11:39:49.002Z,13.75
2023-04-08T11:41:20.377Z,13.85
2023-04-08T11:42:51.906Z,14.17
2023-04-08T11:44:23.616Z,12.97
2023-04-08T11:45:55.046Z,14.14
2023-04-08T11:47:26.402Z,14.85
2023-04-08T11:48:57.758Z,14.65
2023-04-08T11:50:29.050Z,14.24
2023-04-08T11:52:00.477Z,14.23
2023-04-08T11:53:31.759Z,14.06
2023-04-08T11:55:03.052Z,14.35
2023-04-08T11:56:40.151Z,14.78
2023-04-08T11:58:11.517Z,14.33
2023-04-08T11:59:47.969Z,14.49
2023-04-08T12:01:19.401Z,12.96
2023-04-08T12:02:50.866Z,11.91
2023-04-08T12:04:22.454Z,10.94
2023-04-08T12:05:53.968Z,10.56
2023-04-08T12:07:27.129Z,9.50
2023-04-08T12:08:58.729Z,10.54
2023-04-08T12:10:30.292Z,10.16
2023-04-08T12:12:03.251Z,10.90
2023-04-08T12:13:34.749Z,11.24
2023-04-08T12:15:06.259Z,11.33
2023-04-08T12:16:37.624Z,11.29
2023-04-08T12:18:09.302Z,10.44
2023-04-08T12:19:41.338Z,10.50
2023-04-08T12:21:12.944Z,10.62
2023-04-08T12:22:45.347Z,10.59
2023-04-08T12:24:17.057Z,10.35
2023-04-08T12:26:01.245Z,9.41
2023-04-08T12:27:33.775Z,9.62
2023-04-08T12:31:21.256Z,9.68
2023-04-08T12:32:53.250Z,8.74
2023-04-08T12:34:39.911Z,9.12
2023-04-08T12:36:31.595Z,9.45
2023-04-08T12:38:32.895Z,8.89
2023-04-08T12:40:41.735Z,8.81
2023-04-08T12:42:18.561Z,9.42
2023-04-08T12:44:07.309Z,9.19
2023-04-08T12:45:38.611Z,8.38
2023-04-08T12:47:20.774Z,8.14
2023-04-08T12:49:12.038Z,8.01
2023-04-08T12:50:43.337Z,8.04
2023-04-08T12:52:14.688Z,8.46
2023-04-08T12:53:46.034Z,8.89
2023-04-08T12:55:17.384Z,9.58
2023-04-08T12:56:48.743Z,11.12
2023-04-08T12:58:22.410Z,9.89
2023-04-08T12:59:53.988Z,9.48
2023-04-08T13:01:25.497Z,9.48
2023-04-08T13:02:57.053Z,9.72
2023-04-08T13:04:28.803Z,10.22
2023-04-08T13:06:00.142Z,9.58
2023-04-08T13:07:31.522Z,11.18
2023-04-08T13:09:02.962Z,12.00
2023-04-08T13:10:35.086Z,11.16
2023-04-08T13:12:06.691Z,9.62
2023-04-08T13:13:38.156Z,9.25
2023-04-08T13:15:09.444Z,9.59
2023-04-08T13:16:40.984Z,9.83
2023-04-08T13:18:12.539Z,9.40
2023-04-08T13:19:43.900Z,9.61
2023-04-08T13:21:15.268Z,9.71
2023-04-08T13:22:46.600Z,9.80
2023-04-08T13:24:17.995Z,9.78
2023-04-08T13:25:49.534Z,9.60
2023-04-08T13:27:20.908Z,10.42
2023-04-08T13:28:57.446Z,10.60
2023-04-08T13:30:29.829Z,11.01
2023-04-08T13:32:01.401Z,11.37
2023-04-08T13:33:32.797Z,10.96
2023-04-08T13:35:04.051Z,10.43
2023-04-08T13:36:36.223Z,10.74
2023-04-08T13:38:07.556Z,10.61
2023-04-08T13:39:39.159Z,10.09
2023-04-08T13:41:10.466Z,10.80
2023-04-08T13:42:41.729Z,11.62
2023-04-08T13:44:13.054Z,11.96
2023-04-08T13:45:44.558Z,11.31
2023-04-08T13:47:15.940Z,11.47
2023-04-08T13:48:47.482Z,11.86
2023-04-08T13:50:18.889Z,12.45
2023-04-08T13:51:50.219Z,12.99
2023-04-08T13:53:21.662Z,16.45
2023-04-08T13:54:53.124Z,15.93
2023-04-08T13:56:24.599Z,14.53
2023-04-08T14:00:00.516Z,12.22
2023-04-08T14:01:31.962Z,13.04
2023-04-08T14:03:03.251Z,13.66
2023-04-08T14:04:34.763Z,12.08
2023-04-08T14:06:06.037Z,11.96
2023-04-08T14:07:37.555Z,11.68
2023-04-08T14:09:09.059Z,11.60
2023-04-08T14:10:40.385Z,11.39
2023-04-08T14:12:11.814Z,11.53
2023-04-08T14:13:43.202Z,12.28
2023-04-08T14:15:14.638Z,11.41
2023-04-08T14:16:45.924Z,11.07
2023-04-08T14:18:17.671Z,11.34
2023-04-08T14:19:49.262Z,11.20
2023-04-08T14:21:20.558Z,11.18
2023-04-08T14:22:51.902Z,11.87
2023-04-08T14:24:23.304Z,11.44
2023-04-08T14:25:54.914Z,11.61
2023-04-08T14:27:26.259Z,11.43
2023-04-08T14:28:57.564Z,11.66
2023-04-08T14:30:29.038Z,13.70
2023-04-08T14:32:10.675Z,12.66
2023-04-08T14:33:42.035Z,11.70
2023-04-08T14:35:13.471Z,14.27
2023-04-08T14:36:44.924Z,15.75
2023-04-08T14:38:16.196Z,13.97
2023-04-08T14:39:48.641Z,12.80
2023-04-08T14:41:20.971Z,13.45
2023-04-08T14:42:52.320Z,17.58
2023-04-08T14:44:23.774Z,12.33
2023-04-08T14:45:55.328Z,12.71
2023-04-08T14:47:26.802Z,12.34
2023-04-08T14:48:58.407Z,16.76
2023-04-08T14:50:29.797Z,16.08
2023-04-08T14:52:01.165Z,12.85
2023-04-08T14:53:32.680Z,11.81
2023-04-08T14:55:04.070Z,12.00
2023-04-08T14:56:35.494Z,12.32
2023-04-08T14:58:06.808Z,12.55
2023-04-08T14:59:38.108Z,12.36
2023-04-08T15:01:09.655Z,12.04
2023-04-08T15:02:41.091Z,11.71
2023-04-08T15:04:12.806Z,11.17
2023-04-08T15:05:44.322Z,10.95
2023-04-08T15:07:15.666Z,10.47
2023-04-08T15:08:47.103Z,10.33
2023-04-08T15:10:18.458Z,10.82
2023-04-08T15:11:49.832Z,10.74
2023-04-08T15:13:21.098Z,11.28
2023-04-08T15:14:52.390Z,10.95
2023-04-08T15:16:23.873Z,10.05
2023-04-08T15:17:55.445Z,9.78
2023-04-08T15:19:27.019Z,10.44
2023-04-08T15:20:58.581Z,9.95
2023-04-08T15:22:30.396Z,12.26
2023-04-08T15:24:01.895Z,15.24
2023-04-08T15:25:33.270Z,11.08
2023-04-08T15:27:04.615Z,17.78
2023-04-08T15:28:36.109Z,10.28
2023-04-08T15:30:07.573Z,11.12
2023-04-08T15:31:39.000Z,18.46
2023-04-08T15:33:10.420Z,12.34
2023-04-08T15:34:41.842Z,10.95
2023-04-08T15:36:13.182Z,10.36
2023-04-08T15:37:44.674Z,14.03
2023-04-08T15:39:16.043Z,10.73
2023-04-08T15:40:48.459Z,10.33
2023-04-08T15:42:19.896Z,10.87
2023-04-08T15:43:51.243Z,12.32
2023-04-08T15:45:22.528Z,10.93
2023-04-08T15:46:54.180Z,11.50
2023-04-08T15:48:25.450Z,11.73
2023-04-08T15:49:56.851Z,11.36
2023-04-08T15:51:28.201Z,11.86
2023-04-08T15:52:59.446Z,11.46
2023-04-08T15:54:31.283Z,13.43
2023-04-08T15:56:02.648Z,12.14
2023-04-08T15:57:34.207Z,12.38
2023-04-08T15:59:05.480Z,12.03
2023-04-08T16:00:36.848Z,11.88
2023-04-08T16:02:13.628Z,14.22
2023-04-08T16:03:45.233Z,13.17
2023-04-08T16:05:17.357Z,13.76
2023-04-08T16:06:48.799Z,17.47
2023-04-08T16:08:20.078Z,17.59
2023-04-08T16:09:51.412Z,12.99
2023-04-08T16:11:22.868Z,12.62
2023-04-08T16:12:54.469Z,12.83
2023-04-08T16:14:26.116Z,12.63
2023-04-08T16:15:57.671Z,13.54
2023-04-08T16:17:29.372Z,15.50
2023-04-08T16:19:00.951Z,14.16
2023-04-08T16:20:32.218Z,12.62
2023-04-08T16:22:03.532Z,13.92
2023-04-08T16:25:36.832Z,14.11
2023-04-08T16:27:24.442Z,13.04
2023-04-08T16:29:02.019Z,12.44
2023-04-08T16:30:33.606Z,13.53
2023-04-08T16:32:05.280Z,13.22
2023-04-08T16:33:37.308Z,12.94
2023-04-08T16:35:08.730Z,13.11
2023-04-08T16:36:40.471Z,13.47
2023-04-08T16:38:36.701Z,13.83
2023-04-08T16:42:03.288Z,14.20
2023-04-08T16:43:34.843Z,14.76
2023-04-08T16:45:06.185Z,14.52
2023-04-08T16:47:07.141Z,17.04
2023-04-08T16:48:38.639Z,19.18
2023-04-08T16:50:09.986Z,18.42
2023-04-08T16:51:41.606Z,18.32
2023-04-08T16:53:12.989Z,21.70
2023-04-08T16:54:44.259Z,19.72
2023-04-08T16:56:20.817Z,16.16
2023-04-08T16:57:52.164Z,18.34
2023-04-08T16:59:28.743Z,16.48
2023-04-08T17:01:42.459Z,15.46
2023-04-08T17:03:14.196Z,17.66
2023-04-08T17:04:55.541Z,17.53
2023-04-08T17:06:26.835Z,16.64
2023-04-08T17:07:58.218Z,17.08
2023-04-08T17:09:29.515Z,16.15
2023-04-08T17:11:16.123Z,17.59
2023-04-08T17:13:05.541Z,22.32
2023-04-08T17:14:42.012Z,21.56
2023-04-08T17:16:13.303Z,19.14
2023-04-08T17:17:44.687Z,19.20
2023-04-08T17:19:16.102Z,21.02
2023-04-08T17:20:47.439Z,20.29
2023-04-08T17:22:18.758Z,19.67
2023-04-08T17:23:55.244Z,20.51
2023-04-08T17:25:26.653Z,23.56
2023-04-08T17:26:58.300Z,26.81
2023-04-08T17:28:29.553Z,21.44
2023-04-08T17:30:00.998Z,20.20
2023-04-08T17:31:32.354Z,22.28
2023-04-08T17:33:03.780Z,21.10
2023-04-08T17:34:35.264Z,19.02
2023-04-08T17:36:06.527Z,19.74
2023-04-08T17:37:37.919Z,19.19
2023-04-08T17:39:14.416Z,19.60
2023-04-08T17:40:45.980Z,19.80
2023-04-08T17:42:17.427Z,20.71
2023-04-08T17:43:49.094Z,27.30
2023-04-08T17:45:20.718Z,26.96
2023-04-08T17:46:52.102Z,21.71
2023-04-08T17:48:23.381Z,20.42
2023-04-08T17:49:54.856Z,20.71
2023-04-08T17:51:26.313Z,20.73
2023-04-08T17:52:57.608Z,19.81
2023-04-08T17:54:29.036Z,21.78
2023-04-08T17:56:00.425Z,22.00
2023-04-08T17:57:31.864Z,34.93
2023-04-08T17:59:03.189Z,26.15
2023-04-08T18:00:34.637Z,22.62
2023-04-08T18:02:06.207Z,22.17
2023-04-08T18:03:37.956Z,22.83
2023-04-08T18:05:09.425Z,23.60
2023-04-08T18:06:40.736Z,22.11
2023-04-08T18:08:12.123Z,20.43
2023-04-08T18:09:43.712Z,23.61
2023-04-08T18:11:14.989Z,20.45
2023-04-08T18:12:47.812Z,20.43
2023-04-08T18:14:20.489Z,20.39
2023-04-08T18:15:52.141Z,21.03
2023-04-08T18:17:23.845Z,21.46
2023-04-08T18:18:55.397Z,21.71
2023-04-08T18:20:26.638Z,49.93
2023-04-08T18:21:57.992Z,60.30
2023-04-08T18:23:29.433Z,56.54
2023-04-08T18:25:00.760Z,60.89
2023-04-08T18:26:31.998Z,33.57
2023-04-08T18:28:03.197Z,25.44
2023-04-08T18:29:34.706Z,22.44
2023-04-08T18:31:06.122Z,29.20
2023-04-08T18:32:37.679Z,31.08
2023-04-08T18:34:09.095Z,25.92
2023-04-08T18:35:40.682Z,28.92
2023-04-08T18:37:12.178Z,25.45
2023-04-08T18:38:43.741Z,20.74
2023-04-08T18:40:15.288Z,19.49
2023-04-08T18:41:46.669Z,19.77
2023-04-08T18:43:18.156Z,19.47
2023-04-08T18:44:49.693Z,20.20
2023-04-08T18:46:21.082Z,21.14
2023-04-08T18:47:52.414Z,21.27
2023-04-08T18:49:23.679Z,20.48
2023-04-08T18:50:55.020Z,21.41
2023-04-08T18:52:26.347Z,26.71
2023-04-08T18:53:57.725Z,64.18
2023-04-08T18:55:29.104Z,63.94
2023-04-08T18:57:00.338Z,46.24
2023-04-08T18:58:31.572Z,34.52
2023-04-08T19:00:03.001Z,35.12
2023-04-08T19:01:34.822Z,32.51
2023-04-08T19:03:11.345Z,28.51
2023-04-08T19:04:42.822Z,21.38
2023-04-08T19:06:14.172Z,22.99
2023-04-08T19:07:45.442Z,26.05
2023-04-08T19:09:16.898Z,21.23
2023-04-08T19:10:48.742Z,21.08
2023-04-08T19:12:20.085Z,21.79
2023-04-08T19:13:51.481Z,21.80
2023-04-08T19:15:23.433Z,20.96
2023-04-08T19:16:54.863Z,19.54
2023-04-08T19:18:26.179Z,19.20
2023-04-08T19:19:57.619Z,20.05
2023-04-08T19:21:34.159Z,20.54
2023-04-08T19:23:05.377Z,21.31
2023-04-08T19:24:36.763Z,20.61
2023-04-08T19:26:08.057Z,19.43
2023-04-08T19:27:39.483Z,19.44
2023-04-08T19:29:10.777Z,21.06
2023-04-08T19:30:42.285Z,19.65
2023-04-08T19:32:13.711Z,19.61
2023-04-08T19:33:45.074Z,19.78
2023-04-08T19:35:16.350Z,19.56
2023-04-08T19:36:47.883Z,20.21
2023-04-08T19:38:19.193Z,20.53
2023-04-08T19:39:50.486Z,19.95
2023-04-08T19:41:22.017Z,19.91
2023-04-08T19:42:53.370Z,19.96
2023-04-08T19:44:24.678Z,20.98
2023-04-08T19:45:55.982Z,21.36
2023-04-08T19:47:27.336Z,20.75
2023-04-08T19:48:58.853Z,21.36
2023-04-08T19:50:30.269Z,20.95
2023-04-08T19:52:01.553Z,20.92
2023-04-08T19:53:33.043Z,21.23
2023-04-08T19:55:04.373Z,20.98
2023-04-08T19:56:35.773Z,21.17
2023-04-08T19:58:10.475Z,21.16
2023-04-08T19:59:42.169Z,21.85
2023-04-08T20:01:13.458Z,21.55